sensor_id;sensor_type;location;lat;lon;timestamp;pressure;altitude;pressure_sealevel;temperature;humidity
61506;BME280;47366;51.916;4.574;2023-02-13T00:00:14;103908.88;;;6.79;82.54
61506;BME280;47366;51.916;4.574;2023-02-13T00:02:40;103899.03;;;6.79;82.80
61506;BME280;47366;51.916;4.574;2023-02-13T00:05:06;103899.00;;;6.78;82.38
61506;BME280;47366;51.916;4.574;2023-02-13T00:07:32;103899.91;;;6.78;82.59
61506;BME280;47366;51.916;4.574;2023-02-13T00:09:57;103889.16;;;6.77;82.61
61506;BME280;47366;51.916;4.574;2023-02-13T00:12:22;103900.81;;;6.77;82.97
61506;BME280;47366;51.916;4.574;2023-02-13T00:14:47;103881.91;;;6.74;82.93
61506;BME280;47366;51.916;4.574;2023-02-13T00:17:13;103893.59;;;6.76;82.76
61506;BME280;47366;51.916;4.574;2023-02-13T00:19:38;103892.72;;;6.76;82.89
61506;BME280;47366;51.916;4.574;2023-02-13T00:22:04;103889.09;;;6.74;82.88
61506;BME280;47366;51.916;4.574;2023-02-13T00:24:29;103890.00;;;6.76;82.79
61506;BME280;47366;51.916;4.574;2023-02-13T00:26:54;103890.00;;;6.74;82.96
61506;BME280;47366;51.916;4.574;2023-02-13T00:29:20;103881.03;;;6.74;82.70
61506;BME280;47366;51.916;4.574;2023-02-13T00:31:45;103882.81;;;6.76;82.66
61506;BME280;47366;51.916;4.574;2023-02-13T00:34:11;103882.84;;;6.78;82.83
61506;BME280;47366;51.916;4.574;2023-02-13T00:36:37;103885.53;;;6.78;83.00
61506;BME280;47366;51.916;4.574;2023-02-13T00:39:02;103881.94;;;6.77;82.96
61506;BME280;47366;51.916;4.574;2023-02-13T00:41:28;103880.16;;;6.75;82.92
61506;BME280;47366;51.916;4.574;2023-02-13T00:43:53;103878.34;;;6.74;82.86
61506;BME280;47366;51.916;4.574;2023-02-13T00:46:18;103881.03;;;6.72;83.01
61506;BME280;47366;51.916;4.574;2023-02-13T00:48:44;103878.34;;;6.71;83.16
61506;BME280;47366;51.916;4.574;2023-02-13T00:51:10;103876.53;;;6.70;82.66
61506;BME280;47366;51.916;4.574;2023-02-13T00:53:36;103876.53;;;6.70;83.15
61506;BME280;47366;51.916;4.574;2023-02-13T00:56:03;103876.53;;;6.70;83.40
61506;BME280;47366;51.916;4.574;2023-02-13T00:58:29;103866.63;;;6.67;83.06
61506;BME280;47366;51.916;4.574;2023-02-13T01:00:54;103867.56;;;6.68;83.33
61506;BME280;47366;51.916;4.574;2023-02-13T01:03:20;103866.66;;;6.66;83.28
61506;BME280;47366;51.916;4.574;2023-02-13T01:05:47;103865.72;;;6.67;83.46
61506;BME280;47366;51.916;4.574;2023-02-13T01:08:13;103871.13;;;6.67;83.20
61506;BME280;47366;51.916;4.574;2023-02-13T01:10:39;103871.13;;;6.67;83.31
61506;BME280;47366;51.916;4.574;2023-02-13T01:13:05;103877.41;;;6.67;83.33
61506;BME280;47366;51.916;4.574;2023-02-13T01:15:31;103867.53;;;6.66;83.17
61506;BME280;47366;51.916;4.574;2023-02-13T01:17:57;103868.44;;;6.65;83.37
61506;BME280;47366;51.916;4.574;2023-02-13T01:20:24;103860.34;;;6.67;83.24
61506;BME280;47366;51.916;4.574;2023-02-13T01:22:50;103863.06;;;6.65;83.47
61506;BME280;47366;51.916;4.574;2023-02-13T01:25:15;103860.34;;;6.64;83.49
61506;BME280;47366;51.916;4.574;2023-02-13T01:27:40;103867.53;;;6.63;83.47
61506;BME280;47366;51.916;4.574;2023-02-13T01:30:06;103856.75;;;6.62;83.45
61506;BME280;47366;51.916;4.574;2023-02-13T01:32:38;103859.47;;;6.63;83.47
61506;BME280;47366;51.916;4.574;2023-02-13T01:35:04;103845.09;;;6.63;83.32
61506;BME280;47366;51.916;4.574;2023-02-13T01:37:30;103854.97;;;6.64;83.47
61506;BME280;47366;51.916;4.574;2023-02-13T01:39:55;103860.34;;;6.64;83.54
61506;BME280;47366;51.916;4.574;2023-02-13T01:42:24;103864.84;;;6.66;83.46
61506;BME280;47366;51.916;4.574;2023-02-13T01:44:53;103856.75;;;6.66;83.36
61506;BME280;47366;51.916;4.574;2023-02-13T01:50:06;103856.75;;;6.63;83.62
61506;BME280;47366;51.916;4.574;2023-02-13T01:52:34;103855.84;;;6.64;83.57
61506;BME280;47366;51.916;4.574;2023-02-13T01:55:02;103847.78;;;6.61;83.63
61506;BME280;47366;51.916;4.574;2023-02-13T01:57:30;103854.06;;;6.62;83.64
61506;BME280;47366;51.916;4.574;2023-02-13T02:00:05;103849.56;;;6.64;83.72
61506;BME280;47366;51.916;4.574;2023-02-13T02:02:35;103854.94;;;6.62;83.57
61506;BME280;47366;51.916;4.574;2023-02-13T02:05:03;103859.44;;;6.62;83.71
61506;BME280;47366;51.916;4.574;2023-02-13T02:07:30;103855.88;;;6.63;83.22
61506;BME280;47366;51.916;4.574;2023-02-13T02:10:02;103852.25;;;6.62;83.51
61506;BME280;47366;51.916;4.574;2023-02-13T02:12:34;103851.34;;;6.60;83.47
61506;BME280;47366;51.916;4.574;2023-02-13T02:15:02;103849.56;;;6.61;83.70
61506;BME280;47366;51.916;4.574;2023-02-13T02:17:29;103853.16;;;6.61;83.83
61506;BME280;47366;51.916;4.574;2023-02-13T02:25:34;103847.78;;;6.63;83.83
61506;BME280;47366;51.916;4.574;2023-02-13T02:28:38;103856.75;;;6.62;83.90
61506;BME280;47366;51.916;4.574;2023-02-13T02:33:36;103846.88;;;6.62;84.02
61506;BME280;47366;51.916;4.574;2023-02-13T02:39:23;103838.78;;;6.59;84.30
61506;BME280;47366;51.916;4.574;2023-02-13T02:42:06;103836.09;;;6.59;84.08
61506;BME280;47366;51.916;4.574;2023-02-13T02:47:19;103839.72;;;6.63;83.87
61506;BME280;47366;51.916;4.574;2023-02-13T02:50:32;103837.88;;;6.60;83.66
61506;BME280;47366;51.916;4.574;2023-02-13T02:53:22;103840.56;;;6.60;83.86
61506;BME280;47366;51.916;4.574;2023-02-13T02:56:01;103831.63;;;6.61;83.92
61506;BME280;47366;51.916;4.574;2023-02-13T02:58:43;103833.41;;;6.61;83.90
61506;BME280;47366;51.916;4.574;2023-02-13T03:01:29;103833.41;;;6.59;83.75
61506;BME280;47366;51.916;4.574;2023-02-13T03:07:13;103829.81;;;6.58;83.93
61506;BME280;47366;51.916;4.574;2023-02-13T03:09:42;103819.94;;;6.56;83.98
61506;BME280;47366;51.916;4.574;2023-02-13T03:12:34;103827.13;;;6.58;83.54
61506;BME280;47366;51.916;4.574;2023-02-13T03:15:21;103821.72;;;6.57;84.23
61506;BME280;47366;51.916;4.574;2023-02-13T03:17:47;103821.72;;;6.54;84.04
61506;BME280;47366;51.916;4.574;2023-02-13T03:23:44;103823.50;;;6.55;84.20
61506;BME280;47366;51.916;4.574;2023-02-13T03:29:44;103818.13;;;6.49;84.48
61506;BME280;47366;51.916;4.574;2023-02-13T03:46:26;103816.31;;;6.52;84.08
61506;BME280;47366;51.916;4.574;2023-02-13T03:48:56;103815.41;;;6.52;84.14
61506;BME280;47366;51.916;4.574;2023-02-13T03:54:33;103817.22;;;6.53;84.37
61506;BME280;47366;51.916;4.574;2023-02-13T03:57:20;103814.50;;;6.48;84.70
61506;BME280;47366;51.916;4.574;2023-02-13T04:00:10;103805.53;;;6.48;84.68
61506;BME280;47366;51.916;4.574;2023-02-13T04:02:51;103801.03;;;6.47;84.75
61506;BME280;47366;51.916;4.574;2023-02-13T04:05:24;103798.34;;;6.47;84.81
61506;BME280;47366;51.916;4.574;2023-02-13T04:07:50;103803.72;;;6.45;84.90
61506;BME280;47366;51.916;4.574;2023-02-13T04:10:17;103795.66;;;6.47;84.98
61506;BME280;47366;51.916;4.574;2023-02-13T04:13:04;103807.31;;;6.50;84.91
61506;BME280;47366;51.916;4.574;2023-02-13T04:15:42;103804.66;;;6.52;84.60
61506;BME280;47366;51.916;4.574;2023-02-13T04:18:14;103804.66;;;6.49;85.09
61506;BME280;47366;51.916;4.574;2023-02-13T04:20:42;103807.31;;;6.47;85.23
61506;BME280;47366;51.916;4.574;2023-02-13T04:23:09;103808.22;;;6.49;84.89
61506;BME280;47366;51.916;4.574;2023-02-13T04:25:36;103800.13;;;6.45;85.34
61506;BME280;47366;51.916;4.574;2023-02-13T04:28:02;103804.66;;;6.49;85.00
61506;BME280;47366;51.916;4.574;2023-02-13T04:30:28;103801.94;;;6.47;84.98
61506;BME280;47366;51.916;4.574;2023-02-13T04:32:53;103810.03;;;6.50;84.91
61506;BME280;47366;51.916;4.574;2023-02-13T04:35:19;103804.63;;;6.47;84.97
61506;BME280;47366;51.916;4.574;2023-02-13T04:37:44;103806.44;;;6.47;85.11
61506;BME280;47366;51.916;4.574;2023-02-13T04:40:10;103804.66;;;6.49;85.14
61506;BME280;47366;51.916;4.574;2023-02-13T04:42:35;103804.66;;;6.49;85.06
61506;BME280;47366;51.916;4.574;2023-02-13T04:45:00;103801.97;;;6.49;84.92
61506;BME280;47366;51.916;4.574;2023-02-13T04:47:26;103810.94;;;6.52;85.04
61506;BME280;47366;51.916;4.574;2023-02-13T04:49:51;103810.03;;;6.52;85.04
61506;BME280;47366;51.916;4.574;2023-02-13T04:52:16;103817.22;;;6.54;84.82
61506;BME280;47366;51.916;4.574;2023-02-13T04:54:42;103797.47;;;6.52;85.11
61506;BME280;47366;51.916;4.574;2023-02-13T04:57:07;103807.34;;;6.53;85.12
61506;BME280;47366;51.916;4.574;2023-02-13T04:59:32;103804.63;;;6.47;85.30
61506;BME280;47366;51.916;4.574;2023-02-13T05:01:58;103800.16;;;6.49;85.49
61506;BME280;47366;51.916;4.574;2023-02-13T05:04:24;103799.25;;;6.49;85.39
61506;BME280;47366;51.916;4.574;2023-02-13T05:06:50;103790.25;;;6.45;85.42
61506;BME280;47366;51.916;4.574;2023-02-13T05:09:15;103789.38;;;6.49;85.64
61506;BME280;47366;51.916;4.574;2023-02-13T05:11:40;103787.59;;;6.50;85.72
61506;BME280;47366;51.916;4.574;2023-02-13T05:14:06;103787.59;;;6.47;85.61
61506;BME280;47366;51.916;4.574;2023-02-13T05:16:32;103789.41;;;6.51;85.58
61506;BME280;47366;51.916;4.574;2023-02-13T05:18:57;103789.38;;;6.49;85.95
61506;BME280;47366;51.916;4.574;2023-02-13T05:21:22;103792.06;;;6.49;85.56
61506;BME280;47366;51.916;4.574;2023-02-13T05:24:07;103798.34;;;6.50;85.72
61506;BME280;47366;51.916;4.574;2023-02-13T05:26:32;103788.50;;;6.52;85.74
61506;BME280;47366;51.916;4.574;2023-02-13T05:28:58;103798.34;;;6.53;85.69
61506;BME280;47366;51.916;4.574;2023-02-13T05:31:42;103793.00;;;6.51;85.72
61506;BME280;47366;51.916;4.574;2023-02-13T05:34:07;103786.69;;;6.49;85.75
61506;BME280;47366;51.916;4.574;2023-02-13T05:36:32;103790.28;;;6.50;85.87
61506;BME280;47366;51.916;4.574;2023-02-13T05:38:58;103787.59;;;6.51;85.77
61506;BME280;47366;51.916;4.574;2023-02-13T05:41:23;103789.41;;;6.51;85.96
61506;BME280;47366;51.916;4.574;2023-02-13T05:43:48;103784.03;;;6.51;85.90
61506;BME280;47366;51.916;4.574;2023-02-13T05:46:14;103792.06;;;6.52;85.98
61506;BME280;47366;51.916;4.574;2023-02-13T05:48:39;103782.19;;;6.48;85.99
61506;BME280;47366;51.916;4.574;2023-02-13T05:51:04;103795.69;;;6.51;85.95
61506;BME280;47366;51.916;4.574;2023-02-13T05:53:30;103794.78;;;6.51;85.96
61506;BME280;47366;51.916;4.574;2023-02-13T05:55:59;103791.19;;;6.49;85.88
61506;BME280;47366;51.916;4.574;2023-02-13T05:58:24;103793.00;;;6.51;85.95
61506;BME280;47366;51.916;4.574;2023-02-13T06:00:49;103796.56;;;6.52;86.15
61506;BME280;47366;51.916;4.574;2023-02-13T06:03:15;103795.66;;;6.53;85.82
61506;BME280;47366;51.916;4.574;2023-02-13T06:05:40;103796.56;;;6.52;86.06
61506;BME280;47366;51.916;4.574;2023-02-13T06:08:05;103796.56;;;6.52;85.95
61506;BME280;47366;51.916;4.574;2023-02-13T06:10:31;103791.19;;;6.49;86.46
61506;BME280;47366;51.916;4.574;2023-02-13T06:12:56;103789.38;;;6.49;86.19
61506;BME280;47366;51.916;4.574;2023-02-13T06:15:21;103786.69;;;6.49;86.12
61506;BME280;47366;51.916;4.574;2023-02-13T06:17:47;103785.78;;;6.46;86.64
61506;BME280;47366;51.916;4.574;2023-02-13T06:20:12;103784.00;;;6.45;86.38
61506;BME280;47366;51.916;4.574;2023-02-13T06:22:37;103786.69;;;6.48;86.21
61506;BME280;47366;51.916;4.574;2023-02-13T06:25:03;103785.78;;;6.50;86.37
61506;BME280;47366;51.916;4.574;2023-02-13T06:27:28;103793.88;;;6.49;86.58
61506;BME280;47366;51.916;4.574;2023-02-13T06:29:54;103787.59;;;6.47;86.62
61506;BME280;47366;51.916;4.574;2023-02-13T06:32:19;103787.56;;;6.48;86.54
61506;BME280;47366;51.916;4.574;2023-02-13T06:34:44;103783.09;;;6.47;86.76
61506;BME280;47366;51.916;4.574;2023-02-13T06:37:10;103779.50;;;6.47;86.61
61506;BME280;47366;51.916;4.574;2023-02-13T06:39:35;103783.97;;;6.48;86.78
61506;BME280;47366;51.916;4.574;2023-02-13T06:42:00;103780.38;;;6.43;86.60
61506;BME280;47366;51.916;4.574;2023-02-13T06:44:26;103775.91;;;6.42;87.04
61506;BME280;47366;51.916;4.574;2023-02-13T06:46:51;103794.75;;;6.42;87.46
61506;BME280;47366;51.916;4.574;2023-02-13T06:49:16;103788.44;;;6.38;87.42
61506;BME280;47366;51.916;4.574;2023-02-13T06:51:41;103792.94;;;6.37;88.02
61506;BME280;47366;51.916;4.574;2023-02-13T06:54:07;103791.16;;;6.36;87.63
61506;BME280;47366;51.916;4.574;2023-02-13T06:56:32;103795.59;;;6.36;87.49
61506;BME280;47366;51.916;4.574;2023-02-13T06:58:57;103794.72;;;6.32;87.57
61506;BME280;47366;51.916;4.574;2023-02-13T07:01:23;103794.69;;;6.31;87.56
61506;BME280;47366;51.916;4.574;2023-02-13T07:03:48;103802.78;;;6.29;88.20
61506;BME280;47366;51.916;4.574;2023-02-13T07:06:20;103808.16;;;6.28;87.44
61506;BME280;47366;51.916;4.574;2023-02-13T07:08:46;103804.53;;;6.24;87.51
61506;BME280;47366;51.916;4.574;2023-02-13T07:11:18;103805.44;;;6.20;87.41
61506;BME280;47366;51.916;4.574;2023-02-13T07:13:44;103818.00;;;6.21;87.45
61506;BME280;47366;51.916;4.574;2023-02-13T07:16:09;103813.47;;;6.14;87.83
61506;BME280;47366;51.916;4.574;2023-02-13T07:18:34;103816.16;;;6.11;87.70
61506;BME280;47366;51.916;4.574;2023-02-13T07:21:00;103817.03;;;6.11;87.18
61506;BME280;47366;51.916;4.574;2023-02-13T07:23:25;103810.72;;;6.05;87.22
61506;BME280;47366;51.916;4.574;2023-02-13T07:25:50;103817.88;;;6.03;87.68
61506;BME280;47366;51.916;4.574;2023-02-13T07:28:16;103820.59;;;6.01;87.71
61506;BME280;47366;51.916;4.574;2023-02-13T07:30:41;103815.16;;;5.98;87.88
61506;BME280;47366;51.916;4.574;2023-02-13T07:33:06;103811.53;;;5.93;87.45
61506;BME280;47366;51.916;4.574;2023-02-13T07:35:32;103809.72;;;5.90;87.57
61506;BME280;47366;51.916;4.574;2023-02-13T07:37:58;103812.41;;;5.87;88.00
61506;BME280;47366;51.916;4.574;2023-02-13T07:40:24;103817.78;;;5.84;87.67
61506;BME280;47366;51.916;4.574;2023-02-13T07:42:50;103811.47;;;5.84;87.94
61506;BME280;47366;51.916;4.574;2023-02-13T07:45:15;103816.88;;;5.85;87.81
61506;BME280;47366;51.916;4.574;2023-02-13T07:47:41;103815.94;;;5.83;87.61
61506;BME280;47366;51.916;4.574;2023-02-13T07:50:07;103815.06;;;5.83;87.72
61506;BME280;47366;51.916;4.574;2023-02-13T07:52:33;103825.81;;;5.86;87.91
61506;BME280;47366;51.916;4.574;2023-02-13T07:54:58;103815.09;;;5.84;87.81
61506;BME280;47366;51.916;4.574;2023-02-13T07:57:23;103825.84;;;5.87;87.51
61506;BME280;47366;51.916;4.574;2023-02-13T07:59:49;103832.16;;;5.89;87.69
61506;BME280;47366;51.916;4.574;2023-02-13T08:02:15;103823.19;;;5.92;87.64
61506;BME280;47366;51.916;4.574;2023-02-13T08:04:41;103827.69;;;5.91;87.49
61506;BME280;47366;51.916;4.574;2023-02-13T08:07:10;103828.66;;;6.00;87.30
61506;BME280;47366;51.916;4.574;2023-02-13T08:09:35;103827.78;;;6.04;87.39
61506;BME280;47366;51.916;4.574;2023-02-13T08:12:19;103837.63;;;6.05;87.78
61506;BME280;47366;51.916;4.574;2023-02-13T08:14:44;103831.38;;;6.09;87.97
61506;BME280;47366;51.916;4.574;2023-02-13T08:17:10;103834.09;;;6.10;87.53
61506;BME280;47366;51.916;4.574;2023-02-13T08:19:35;103832.31;;;6.14;87.58
61506;BME280;47366;51.916;4.574;2023-02-13T08:22:00;103836.81;;;6.18;87.92
61506;BME280;47366;51.916;4.574;2023-02-13T08:24:25;103832.34;;;6.22;88.09
61506;BME280;47366;51.916;4.574;2023-02-13T08:26:51;103847.63;;;6.27;87.72
61506;BME280;47366;51.916;4.574;2023-02-13T08:29:16;103844.94;;;6.29;87.95
61506;BME280;47366;51.916;4.574;2023-02-13T08:31:42;103840.47;;;6.35;87.69
61506;BME280;47366;51.916;4.574;2023-02-13T08:34:07;103841.41;;;6.39;87.75
61506;BME280;47366;51.916;4.574;2023-02-13T08:36:33;103840.53;;;6.45;87.83
61506;BME280;47366;51.916;4.574;2023-02-13T08:38:58;103838.75;;;6.51;87.52
61506;BME280;47366;51.916;4.574;2023-02-13T08:41:23;103846.81;;;6.53;87.54
61506;BME280;47366;51.916;4.574;2023-02-13T08:43:49;103842.38;;;6.56;87.52
61506;BME280;47366;51.916;4.574;2023-02-13T08:46:15;103848.66;;;6.62;87.77
61506;BME280;47366;51.916;4.574;2023-02-13T08:48:41;103851.41;;;6.68;87.13
61506;BME280;47366;51.916;4.574;2023-02-13T08:51:07;103847.81;;;6.73;87.04
61506;BME280;47366;51.916;4.574;2023-02-13T08:53:36;103847.81;;;6.75;86.83
61506;BME280;47366;51.916;4.574;2023-02-13T08:56:02;103839.75;;;6.78;86.72
61506;BME280;47366;51.916;4.574;2023-02-13T08:58:27;103850.53;;;6.86;87.23
61506;BME280;47366;51.916;4.574;2023-02-13T09:00:53;103841.53;;;6.84;86.87
61506;BME280;47366;51.916;4.574;2023-02-13T09:03:18;103850.53;;;6.90;87.06
61506;BME280;47366;51.916;4.574;2023-02-13T09:05:44;103848.78;;;6.94;86.65
61506;BME280;47366;51.916;4.574;2023-02-13T09:08:09;103860.44;;;6.97;86.72
61506;BME280;47366;51.916;4.574;2023-02-13T09:10:38;103855.06;;;7.02;86.84
61506;BME280;47366;51.916;4.574;2023-02-13T09:13:04;103846.97;;;7.05;86.71
61506;BME280;47366;51.916;4.574;2023-02-13T09:15:30;103846.97;;;6.99;86.75
61506;BME280;47366;51.916;4.574;2023-02-13T09:17:56;103841.59;;;7.04;86.71
61506;BME280;47366;51.916;4.574;2023-02-13T09:20:22;103848.78;;;7.09;86.64
61506;BME280;47366;51.916;4.574;2023-02-13T09:22:47;103846.09;;;7.12;86.40
61506;BME280;47366;51.916;4.574;2023-02-13T09:25:13;103851.50;;;7.20;86.54
61506;BME280;47366;51.916;4.574;2023-02-13T09:27:38;103849.69;;;7.28;85.93
61506;BME280;47366;51.916;4.574;2023-02-13T09:30:05;103854.19;;;7.34;86.15
61506;BME280;47366;51.916;4.574;2023-02-13T09:32:31;103856.88;;;7.51;85.96
61506;BME280;47366;51.916;4.574;2023-02-13T09:34:58;103852.41;;;7.63;85.90
61506;BME280;47366;51.916;4.574;2023-02-13T09:37:24;103848.81;;;7.71;85.23
61506;BME280;47366;51.916;4.574;2023-02-13T09:39:50;103849.66;;;7.88;84.94
61506;BME280;47366;51.916;4.574;2023-02-13T09:42:21;103846.94;;;8.06;84.36
61506;BME280;47366;51.916;4.574;2023-02-13T09:44:52;103841.50;;;8.16;83.57
61506;BME280;47366;51.916;4.574;2023-02-13T09:52:35;103846.81;;;8.45;82.64
61506;BME280;47366;51.916;4.574;2023-02-13T09:55:02;103849.44;;;8.62;82.33
61506;BME280;47366;51.916;4.574;2023-02-13T09:57:36;103843.09;;;8.70;81.84
61506;BME280;47366;51.916;4.574;2023-02-13T10:02:52;103846.56;;;8.91;81.11
61506;BME280;47366;51.916;4.574;2023-02-13T10:08:46;103841.78;;;9.31;80.36
61506;BME280;47366;51.916;4.574;2023-02-13T10:14:01;103851.53;;;9.51;79.01
61506;BME280;47366;51.916;4.574;2023-02-13T10:16:35;103833.34;;;9.65;79.09
61506;BME280;47366;51.916;4.574;2023-02-13T10:19:11;103824.22;;;9.80;79.11
61506;BME280;47366;51.916;4.574;2023-02-13T10:21:45;103829.50;;;9.94;78.63
61506;BME280;47366;51.916;4.574;2023-02-13T10:26:46;103822.78;;;10.29;77.33
61506;BME280;47366;51.916;4.574;2023-02-13T10:29:20;103827.97;;;10.47;76.99
61506;BME280;47366;51.916;4.574;2023-02-13T10:32:10;103818.78;;;10.57;76.33
61506;BME280;47366;51.916;4.574;2023-02-13T10:34:45;103823.31;;;10.55;75.01
61506;BME280;47366;51.916;4.574;2023-02-13T10:37:14;103823.09;;;10.74;75.33
61506;BME280;47366;51.916;4.574;2023-02-13T10:39:42;103822.16;;;10.75;74.89
61506;BME280;47366;51.916;4.574;2023-02-13T10:45:24;103809.34;;;10.86;74.23
61506;BME280;47366;51.916;4.574;2023-02-13T10:50:44;103804.28;;;11.20;73.37
61506;BME280;47366;51.916;4.574;2023-02-13T11:04:22;103813.88;;;11.41;71.58
61506;BME280;47366;51.916;4.574;2023-02-13T11:07:10;103799.91;;;11.63;71.84
61506;BME280;47366;51.916;4.574;2023-02-13T11:09:40;103803.34;;;11.73;71.76
61506;BME280;47366;51.916;4.574;2023-02-13T11:12:25;103803.16;;;11.83;70.95
61506;BME280;47366;51.916;4.574;2023-02-13T11:14:57;103797.59;;;11.91;71.20
61506;BME280;47366;51.916;4.574;2023-02-13T11:17:23;103786.47;;;12.05;69.94
61506;BME280;47366;51.916;4.574;2023-02-13T11:19:55;103799.09;;;12.07;69.28
61506;BME280;47366;51.916;4.574;2023-02-13T11:22:34;103793.66;;;12.06;68.66
61506;BME280;47366;51.916;4.574;2023-02-13T11:25:05;103787.16;;;12.15;69.07
61506;BME280;47366;51.916;4.574;2023-02-13T11:27:33;103782.34;;;12.27;69.30
61506;BME280;47366;51.916;4.574;2023-02-13T11:30:04;103780.31;;;12.39;69.52
61506;BME280;47366;51.916;4.574;2023-02-13T11:32:32;103775.41;;;12.56;69.24
61506;BME280;47366;51.916;4.574;2023-02-13T11:35:37;103770.41;;;12.75;68.63
61506;BME280;47366;51.916;4.574;2023-02-13T11:40:34;103770.69;;;12.63;68.83
61506;BME280;47366;51.916;4.574;2023-02-13T11:43:00;103760.88;;;12.56;68.79
61506;BME280;47366;51.916;4.574;2023-02-13T11:45:25;103760.59;;;12.68;69.27
61506;BME280;47366;51.916;4.574;2023-02-13T11:47:53;103753.06;;;12.81;67.46
61506;BME280;47366;51.916;4.574;2023-02-13T11:53:17;103756.03;;;13.06;67.42
61506;BME280;47366;51.916;4.574;2023-02-13T11:55:45;103753.69;;;12.92;65.81
61506;BME280;47366;51.916;4.574;2023-02-13T11:58:27;103750.22;;;12.85;65.82
61506;BME280;47366;51.916;4.574;2023-02-13T12:04:14;103749.16;;;12.92;67.61
61506;BME280;47366;51.916;4.574;2023-02-13T12:06:41;103745.44;;;12.95;65.70
61506;BME280;47366;51.916;4.574;2023-02-13T12:09:21;103745.09;;;13.09;67.12
61506;BME280;47366;51.916;4.574;2023-02-13T12:11:55;103741.13;;;13.22;66.24
61506;BME280;47366;51.916;4.574;2023-02-13T12:14:29;103740.09;;;13.26;65.61
61506;BME280;47366;51.916;4.574;2023-02-13T12:16:58;103745.16;;;13.42;66.03
61506;BME280;47366;51.916;4.574;2023-02-13T12:19:33;103745.91;;;13.48;65.95
61506;BME280;47366;51.916;4.574;2023-02-13T12:22:31;103747.19;;;13.35;62.75
61506;BME280;47366;51.916;4.574;2023-02-13T12:25:21;103746.19;;;13.37;62.85
61506;BME280;47366;51.916;4.574;2023-02-13T12:33:36;103723.66;;;13.32;64.81
61506;BME280;47366;51.916;4.574;2023-02-13T12:36:19;103724.88;;;13.19;63.56
61506;BME280;47366;51.916;4.574;2023-02-13T12:41:57;103717.28;;;13.32;63.30
61506;BME280;47366;51.916;4.574;2023-02-13T12:44:40;103713.84;;;13.25;62.76
61506;BME280;47366;51.916;4.574;2023-02-13T12:47:17;103714.97;;;13.16;61.89
61506;BME280;47366;51.916;4.574;2023-02-13T13:08:48;103690.41;;;13.84;61.98
61506;BME280;47366;51.916;4.574;2023-02-13T13:16:40;103693.19;;;13.82;62.56
61506;BME280;47366;51.916;4.574;2023-02-13T13:19:12;103690.31;;;13.87;61.30
61506;BME280;47366;51.916;4.574;2023-02-13T13:21:46;103691.91;;;13.94;62.17
61506;BME280;47366;51.916;4.574;2023-02-13T13:24:30;103681.09;;;13.92;61.81
61506;BME280;47366;51.916;4.574;2023-02-13T13:26:59;103685.25;;;13.74;60.11
61506;BME280;47366;51.916;4.574;2023-02-13T13:29:28;103687.06;;;13.74;61.30
61506;BME280;47366;51.916;4.574;2023-02-13T13:32:00;103675.94;;;13.81;62.04
61506;BME280;47366;51.916;4.574;2023-02-13T13:34:29;103675.34;;;13.70;62.50
61506;BME280;47366;51.916;4.574;2023-02-13T13:36:58;103679.25;;;13.62;61.34
61506;BME280;47366;51.916;4.574;2023-02-13T13:39:47;103687.69;;;13.52;60.29
61506;BME280;47366;51.916;4.574;2023-02-13T13:42:45;103674.50;;;13.37;60.50
61506;BME280;47366;51.916;4.574;2023-02-13T13:51:05;103671.56;;;12.76;62.24
61506;BME280;47366;51.916;4.574;2023-02-13T13:53:31;103661.88;;;12.66;62.72
61506;BME280;47366;51.916;4.574;2023-02-13T13:55:57;103668.53;;;12.52;63.01
61506;BME280;47366;51.916;4.574;2023-02-13T14:03:38;103652.84;;;12.26;64.89
61506;BME280;47366;51.916;4.574;2023-02-13T14:06:09;103651.38;;;12.11;64.45
61506;BME280;47366;51.916;4.574;2023-02-13T14:13:50;103648.16;;;11.94;65.19
61506;BME280;47366;51.916;4.574;2023-02-13T14:16:36;103640.13;;;11.88;66.54
61506;BME280;47366;51.916;4.574;2023-02-13T14:19:04;103654.00;;;11.73;66.58
61506;BME280;47366;51.916;4.574;2023-02-13T14:21:30;103639.59;;;11.69;66.70
61506;BME280;47366;51.916;4.574;2023-02-13T14:23:57;103646.00;;;11.65;67.34
61506;BME280;47366;51.916;4.574;2023-02-13T14:26:36;103637.78;;;11.69;66.93
61506;BME280;47366;51.916;4.574;2023-02-13T14:29:16;103640.59;;;11.65;66.39
61506;BME280;47366;51.916;4.574;2023-02-13T14:32:00;103633.63;;;11.52;66.90
61506;BME280;47366;51.916;4.574;2023-02-13T14:34:36;103621.31;;;11.35;66.28
61506;BME280;47366;51.916;4.574;2023-02-13T14:37:14;103634.03;;;11.32;67.29
61506;BME280;47366;51.916;4.574;2023-02-13T14:40:12;103634.97;;;11.31;67.29
61506;BME280;47366;51.916;4.574;2023-02-13T14:42:41;103635.06;;;11.24;67.35
61506;BME280;47366;51.916;4.574;2023-02-13T14:45:16;103634.97;;;11.29;67.68
61506;BME280;47366;51.916;4.574;2023-02-13T14:47:45;103634.06;;;11.30;67.94
61506;BME280;47366;51.916;4.574;2023-02-13T14:50:22;103636.66;;;11.36;68.04
61506;BME280;47366;51.916;4.574;2023-02-13T14:52:49;103632.16;;;11.35;68.09
61506;BME280;47366;51.916;4.574;2023-02-13T14:57:51;103621.13;;;11.44;68.22
61506;BME280;47366;51.916;4.574;2023-02-13T15:02:50;103627.41;;;11.46;67.62
61506;BME280;47366;51.916;4.574;2023-02-13T15:05:18;103626.47;;;11.47;67.74
61506;BME280;47366;51.916;4.574;2023-02-13T15:10:42;103620.19;;;11.44;67.61
61506;BME280;47366;51.916;4.574;2023-02-13T15:15:57;103620.09;;;11.48;67.19
61506;BME280;47366;51.916;4.574;2023-02-13T15:18:30;103625.50;;;11.52;68.22
61506;BME280;47366;51.916;4.574;2023-02-13T15:20:58;103610.19;;;11.47;67.81
61506;BME280;47366;51.916;4.574;2023-02-13T15:23:28;103612.03;;;11.45;67.43
61506;BME280;47366;51.916;4.574;2023-02-13T15:25:58;103618.44;;;11.43;67.63
61506;BME280;47366;51.916;4.574;2023-02-13T15:28:25;103609.50;;;11.38;67.81
61506;BME280;47366;51.916;4.574;2023-02-13T15:31:06;103609.59;;;11.33;67.92
61506;BME280;47366;51.916;4.574;2023-02-13T15:33:44;103602.41;;;11.31;68.76
61506;BME280;47366;51.916;4.574;2023-02-13T15:36:21;103609.75;;;11.24;68.29